createdAt,value
2022-09-18T00:02:25.702Z,86.30
2022-09-18T00:05:00.592Z,86.70
2022-09-18T00:07:35.555Z,86.30
2022-09-18T00:10:10.463Z,86.50
2022-09-18T00:12:45.283Z,86.00
2022-09-18T00:15:20.282Z,84.80
2022-09-18T00:17:55.148Z,85.80
2022-09-18T00:20:30.261Z,84.70
2022-09-18T00:23:05.097Z,83.80
2022-09-18T00:25:41.645Z,84.10
2022-09-18T00:28:16.554Z,84.00
2022-09-18T00:30:51.451Z,84.30
2022-09-18T00:33:26.384Z,84.60
2022-09-18T00:36:03.958Z,83.20
2022-09-18T00:38:39.234Z,83.40
2022-09-18T00:41:24.682Z,81.80
2022-09-18T00:44:47.589Z,83.20
2022-09-18T00:47:46.281Z,83.20
2022-09-18T00:50:25.513Z,84.40
2022-09-18T00:53:03.658Z,83.30
2022-09-18T00:55:38.654Z,84.60
2022-09-18T00:58:13.805Z,84.90
2022-09-18T01:00:48.916Z,84.70
2022-09-18T01:03:23.857Z,84.50
2022-09-18T01:06:28.889Z,84.90
2022-09-18T01:09:30.257Z,84.90
2022-09-18T01:12:33.827Z,84.30
2022-09-18T01:15:59.108Z,85.00
2022-09-18T01:19:05.895Z,83.50
2022-09-18T01:22:00.918Z,83.80
2022-09-18T01:25:22.344Z,84.50
2022-09-18T01:28:31.953Z,83.70
2022-09-18T01:31:18.809Z,83.80
2022-09-18T01:34:03.295Z,82.30
2022-09-18T01:36:44.914Z,82.20
2022-09-18T01:39:34.895Z,78.50
2022-09-18T01:42:11.979Z,75.80
2022-09-18T01:44:47.895Z,78.50
2022-09-18T01:47:29.145Z,79.60
2022-09-18T01:50:06.096Z,80.30
2022-09-18T01:52:54.492Z,80.60
2022-09-18T01:55:31.851Z,81.30
2022-09-18T01:58:17.399Z,79.90
2022-09-18T02:00:58.380Z,79.70
2022-09-18T02:03:41.925Z,82.20
2022-09-18T02:06:24.806Z,81.40
2022-09-18T02:09:01.428Z,82.30
2022-09-18T02:11:41.934Z,82.80
2022-09-18T02:14:24.116Z,83.50
2022-09-18T02:17:27.282Z,83.90
2022-09-18T02:20:10.829Z,84.00
2022-09-18T02:22:48.250Z,84.00
2022-09-18T02:25:31.866Z,83.10
2022-09-18T02:28:09.085Z,82.30
2022-09-18T02:30:44.365Z,83.40
2022-09-18T02:33:33.438Z,83.70
2022-09-18T02:36:39.708Z,84.70
2022-09-18T02:39:36.862Z,83.10
2022-09-18T02:42:47.540Z,83.40
2022-09-18T02:45:34.336Z,84.10
2022-09-18T02:48:32.791Z,83.60
2022-09-18T02:51:30.430Z,84.50
2022-09-18T02:54:17.283Z,84.40
2022-09-18T02:57:16.703Z,85.10
2022-09-18T02:59:56.990Z,84.80
2022-09-18T03:02:33.362Z,85.00
2022-09-18T03:05:09.261Z,85.30
2022-09-18T03:08:02.932Z,84.00
2022-09-18T03:10:39.428Z,85.00
2022-09-18T03:13:14.712Z,85.30
2022-09-18T03:15:49.622Z,85.20
2022-09-18T03:18:24.861Z,85.50
2022-09-18T03:21:01.595Z,85.60
2022-09-18T03:23:36.506Z,86.10
2022-09-18T03:26:24.260Z,86.60
2022-09-18T03:28:59.559Z,86.60
2022-09-18T03:31:36.478Z,86.50
2022-09-18T03:34:12.897Z,86.80
2022-09-18T03:36:48.951Z,86.50
2022-09-18T03:39:25.244Z,86.70
2022-09-18T03:42:01.115Z,86.30
2022-09-18T03:44:39.728Z,86.20
2022-09-18T03:47:25.683Z,86.00
2022-09-18T03:50:00.622Z,86.50
2022-09-18T03:52:39.530Z,86.60
2022-09-18T03:55:37.440Z,86.60
2022-09-18T03:58:50.365Z,86.80
2022-09-18T04:01:39.167Z,86.50
2022-09-18T04:04:33.025Z,86.60
2022-09-18T04:07:27.827Z,86.40
2022-09-18T04:10:22.698Z,86.60
2022-09-18T04:12:57.641Z,86.50
2022-09-18T04:15:38.614Z,87.00
2022-09-18T04:18:13.588Z,86.80
2022-09-18T04:20:48.728Z,86.70
2022-09-18T04:23:23.618Z,86.80
2022-09-18T04:25:58.819Z,86.90
2022-09-18T04:28:38.706Z,86.40
2022-09-18T04:31:15.038Z,86.70
2022-09-18T04:33:50.299Z,86.70
2022-09-18T04:36:29.002Z,86.40
2022-09-18T04:39:04.542Z,85.60
2022-09-18T04:41:39.514Z,86.10
2022-09-18T04:44:14.486Z,85.20
2022-09-18T04:46:51.221Z,84.70
2022-09-18T04:49:26.142Z,85.10
2022-09-18T04:52:01.430Z,85.60
2022-09-18T04:54:38.141Z,85.80
2022-09-18T04:57:13.632Z,85.40
2022-09-18T04:59:53.891Z,85.10
2022-09-18T05:02:28.957Z,85.40
2022-09-18T05:05:04.413Z,85.30
2022-09-18T05:07:44.217Z,86.10
2022-09-18T05:10:19.308Z,85.80
2022-09-18T05:12:54.509Z,85.70
2022-09-18T05:15:29.786Z,85.50
2022-09-18T05:18:11.319Z,84.80
2022-09-18T05:20:46.656Z,85.30
2022-09-18T05:23:22.223Z,85.20
2022-09-18T05:25:57.940Z,85.00
2022-09-18T05:28:32.844Z,84.90
2022-09-18T05:31:08.735Z,85.70
2022-09-18T05:33:50.058Z,86.00
2022-09-18T05:36:25.400Z,85.60
2022-09-18T05:39:01.378Z,86.30
2022-09-18T05:41:36.808Z,86.90
2022-09-18T05:44:12.446Z,86.70
2022-09-18T05:46:48.364Z,86.80
2022-09-18T05:49:24.524Z,87.20
2022-09-18T05:51:59.461Z,87.40
2022-09-18T05:54:37.323Z,87.30
2022-09-18T05:57:12.254Z,87.70
2022-09-18T05:59:47.337Z,87.80
2022-09-18T06:02:22.421Z,87.30
2022-09-18T06:05:19.876Z,87.60
2022-09-18T06:07:59.518Z,87.20
2022-09-18T06:10:39.616Z,87.80
2022-09-18T06:13:18.090Z,87.80
2022-09-18T06:15:58.361Z,87.40
2022-09-18T06:18:42.233Z,87.70
2022-09-18T06:21:17.653Z,87.70
2022-09-18T06:23:53.934Z,87.60
2022-09-18T06:26:37.228Z,87.40
2022-09-18T06:29:14.149Z,87.30
2022-09-18T06:31:57.234Z,87.50
2022-09-18T06:34:38.650Z,87.20
2022-09-18T06:37:16.626Z,87.70
2022-09-18T06:39:51.696Z,87.20
2022-09-18T06:42:46.623Z,87.60
2022-09-18T06:45:41.508Z,87.90
2022-09-18T06:48:16.729Z,88.00
2022-09-18T06:50:57.188Z,88.00
2022-09-18T06:53:33.885Z,88.40
2022-09-18T06:56:11.642Z,88.30
2022-09-18T06:58:46.527Z,87.10
2022-09-18T07:01:23.993Z,87.20
2022-09-18T07:04:10.484Z,87.00
2022-09-18T07:06:48.921Z,86.70
2022-09-18T07:09:23.927Z,86.10
2022-09-18T07:12:02.063Z,85.60
2022-09-18T07:14:59.329Z,85.30
2022-09-18T07:17:35.163Z,85.80
2022-09-18T07:20:12.101Z,83.80
2022-09-18T07:22:55.996Z,83.60
2022-09-18T07:25:41.217Z,83.30
2022-09-18T07:28:16.473Z,83.60
2022-09-18T07:31:05.828Z,83.30
2022-09-18T07:33:40.812Z,83.60
2022-09-18T07:36:17.301Z,83.70
2022-09-18T07:38:52.738Z,83.80
2022-09-18T07:41:29.117Z,82.60
2022-09-18T07:44:04.136Z,81.90
2022-09-18T07:46:39.120Z,80.20
2022-09-18T07:49:16.315Z,76.90
2022-09-18T07:51:51.249Z,74.70
2022-09-18T07:54:27.287Z,74.20
2022-09-18T07:57:10.330Z,74.70
2022-09-18T08:00:00.369Z,68.60
2022-09-18T08:02:35.818Z,69.20
2022-09-18T08:05:11.040Z,70.50
2022-09-18T08:07:56.031Z,67.80
2022-09-18T08:10:47.337Z,66.60
2022-09-18T08:13:49.887Z,66.10
2022-09-18T08:16:47.685Z,63.10
2022-09-18T08:19:46.851Z,60.60
2022-09-18T08:22:48.462Z,56.90
2022-09-18T08:25:24.475Z,60.50
2022-09-18T08:28:05.425Z,61.80
2022-09-18T08:30:45.542Z,61.40
2022-09-18T08:33:21.188Z,60.80
2022-09-18T08:35:56.956Z,57.20
2022-09-18T08:38:45.989Z,55.20
2022-09-18T08:42:16.428Z,56.50
2022-09-18T08:45:31.232Z,54.80
2022-09-18T08:48:20.399Z,51.60
2022-09-18T08:51:06.662Z,50.00
2022-09-18T08:53:47.147Z,48.70
2022-09-18T08:56:36.309Z,47.40
2022-09-18T08:59:45.233Z,49.00
2022-09-18T09:02:47.218Z,49.20
2022-09-18T09:05:28.778Z,46.20
2022-09-18T09:08:34.473Z,46.60
2022-09-18T09:11:29.411Z,47.40
2022-09-18T09:14:56.009Z,47.20
2022-09-18T09:17:41.596Z,46.60
2022-09-18T09:20:30.628Z,46.80
2022-09-18T09:23:56.284Z,46.70
2022-09-18T09:26:53.770Z,46.50
2022-09-18T09:30:15.941Z,47.70
2022-09-18T09:33:31.064Z,46.70
2022-09-18T09:36:20.595Z,46.30
2022-09-18T09:39:13.608Z,44.90
2022-09-18T09:42:05.371Z,45.30
2022-09-18T09:44:46.870Z,44.10
2022-09-18T09:47:40.827Z,45.30
2022-09-18T09:50:19.684Z,44.40
2022-09-18T09:53:00.961Z,44.70
2022-09-18T09:55:55.661Z,42.90
2022-09-18T09:58:59.229Z,43.20
2022-09-18T10:01:49.674Z,42.70
2022-09-18T10:04:44.580Z,44.10
2022-09-18T10:07:35.735Z,44.00
2022-09-18T10:10:40.268Z,41.60
2022-09-18T10:13:32.341Z,40.50
2022-09-18T10:16:25.878Z,41.20
2022-09-18T10:19:04.516Z,41.10
2022-09-18T10:21:42.151Z,39.50
2022-09-18T10:24:29.950Z,40.50
2022-09-18T10:27:12.655Z,38.80
2022-09-18T10:29:49.137Z,39.30
2022-09-18T10:32:41.407Z,38.60
2022-09-18T10:35:41.631Z,38.50
2022-09-18T10:38:32.466Z,37.10
2022-09-18T10:41:28.439Z,36.90
2022-09-18T10:44:27.210Z,36.90
2022-09-18T10:47:20.864Z,36.30
2022-09-18T10:50:09.093Z,35.30
2022-09-18T10:52:49.013Z,35.40
2022-09-18T10:55:31.320Z,35.20
2022-09-18T10:58:16.001Z,35.10
2022-09-18T11:01:07.783Z,34.40
2022-09-18T11:04:05.770Z,35.00
2022-09-18T11:06:46.713Z,34.40
2022-09-18T11:09:37.168Z,34.00
2022-09-18T11:12:25.061Z,33.40
2022-09-18T11:15:07.700Z,32.50
2022-09-18T11:17:52.252Z,31.20
2022-09-18T11:20:30.586Z,31.10
2022-09-18T11:23:26.500Z,31.70
2022-09-18T11:26:31.061Z,31.40
2022-09-18T11:29:33.137Z,30.50
2022-09-18T11:32:10.898Z,30.70
2022-09-18T11:34:59.272Z,30.60
2022-09-18T11:37:49.032Z,30.20
2022-09-18T11:40:32.717Z,30.40
2022-09-18T11:43:16.814Z,30.20
2022-09-18T11:46:22.614Z,30.70
2022-09-18T11:49:07.121Z,30.80
2022-09-18T11:52:01.620Z,30.40
2022-09-18T11:54:59.361Z,30.50
2022-09-18T11:57:43.082Z,29.70
2022-09-18T12:00:24.378Z,29.70
2022-09-18T12:03:42.746Z,30.00
2022-09-18T12:06:32.952Z,29.80
2022-09-18T12:09:27.978Z,29.40
2022-09-18T12:12:23.512Z,29.40
2022-09-18T12:15:13.753Z,29.50
2022-09-18T12:18:08.423Z,29.00
2022-09-18T12:20:50.250Z,29.40
2022-09-18T12:23:26.446Z,29.20
2022-09-18T12:26:44.213Z,28.80
2022-09-18T12:29:58.208Z,28.60
2022-09-18T12:33:15.908Z,28.80
2022-09-18T12:36:19.080Z,28.60
2022-09-18T12:39:23.883Z,28.60
2022-09-18T12:42:39.650Z,28.20
2022-09-18T12:46:11.535Z,28.80
2022-09-18T12:49:21.477Z,28.80
2022-09-18T12:52:23.890Z,28.20
2022-09-18T12:55:19.330Z,28.10
2022-09-18T12:58:20.470Z,28.00
2022-09-18T13:00:59.193Z,28.00
2022-09-18T13:03:38.660Z,27.30
2022-09-18T13:06:20.021Z,27.80
2022-09-18T13:09:25.800Z,27.60
2022-09-18T13:12:09.375Z,27.60
2022-09-18T13:14:57.704Z,28.10
2022-09-18T13:17:43.805Z,28.00
2022-09-18T13:20:32.543Z,28.20
2022-09-18T13:23:21.393Z,28.30
2022-09-18T13:25:58.552Z,28.30
2022-09-18T13:28:34.175Z,28.50
2022-09-18T13:31:15.377Z,28.80
2022-09-18T13:34:01.647Z,28.50
2022-09-18T13:36:40.148Z,28.30
2022-09-18T13:39:28.732Z,28.50
2022-09-18T13:42:04.031Z,28.80
2022-09-18T13:44:38.881Z,28.10
2022-09-18T13:47:16.215Z,27.90
2022-09-18T13:49:56.685Z,27.80
2022-09-18T13:52:34.840Z,27.90
2022-09-18T13:55:18.543Z,27.90
2022-09-18T13:58:31.671Z,28.40
2022-09-18T14:01:09.514Z,28.20
2022-09-18T14:03:44.460Z,28.70
2022-09-18T14:06:40.587Z,29.00
2022-09-18T14:09:46.197Z,29.00
2022-09-18T14:12:21.593Z,29.00
2022-09-18T14:15:06.168Z,28.90
2022-09-18T14:17:41.550Z,28.90
2022-09-18T14:20:22.409Z,29.20
2022-09-18T14:23:35.468Z,29.00
2022-09-18T14:26:47.062Z,29.20
2022-09-18T14:29:22.278Z,29.10
2022-09-18T14:31:59.864Z,29.00
2022-09-18T14:34:40.928Z,28.90
2022-09-18T14:37:18.837Z,29.20
2022-09-18T14:39:55.357Z,28.90
2022-09-18T14:42:40.056Z,28.80
2022-09-18T14:45:14.813Z,28.80
2022-09-18T14:47:50.541Z,28.80
2022-09-18T14:50:37.400Z,28.60
2022-09-18T14:53:28.557Z,28.80
2022-09-18T14:56:09.960Z,29.00
2022-09-18T14:58:47.708Z,29.10
2022-09-18T15:01:27.811Z,29.30
2022-09-18T15:04:05.208Z,28.90
2022-09-18T15:06:50.439Z,29.00
2022-09-18T15:09:34.560Z,29.10
2022-09-18T15:12:17.494Z,28.80
2022-09-18T15:14:52.676Z,29.00
2022-09-18T15:17:29.465Z,28.90
2022-09-18T15:20:17.157Z,29.10
2022-09-18T15:22:53.409Z,29.10
2022-09-18T15:25:33.590Z,29.00
2022-09-18T15:28:08.652Z,29.00
2022-09-18T15:30:44.365Z,28.90
2022-09-18T15:33:21.112Z,28.80
2022-09-18T15:35:56.819Z,28.80
2022-09-18T15:38:45.095Z,28.70
2022-09-18T15:41:45.598Z,29.00
2022-09-18T15:44:38.152Z,28.80
2022-09-18T15:47:36.385Z,28.80
2022-09-18T15:50:16.907Z,29.10
2022-09-18T15:52:51.957Z,29.00
2022-09-18T15:55:49.396Z,29.00
2022-09-18T15:58:39.506Z,29.00
2022-09-18T16:01:25.441Z,29.10
2022-09-18T16:04:08.794Z,29.30
2022-09-18T16:07:01.719Z,29.30
2022-09-18T16:09:43.744Z,29.40
2022-09-18T16:12:28.720Z,29.50
2022-09-18T16:15:18.813Z,29.40
2022-09-18T16:18:10.708Z,29.50
2022-09-18T16:20:52.500Z,29.50
2022-09-18T16:23:53.135Z,29.50
2022-09-18T16:26:30.754Z,29.50
2022-09-18T16:29:23.242Z,29.50
2022-09-18T16:31:58.169Z,29.80
2022-09-18T16:34:33.696Z,29.80
2022-09-18T16:37:12.222Z,29.70
2022-09-18T16:39:47.075Z,29.40
2022-09-18T16:42:21.922Z,29.30
2022-09-18T16:44:56.993Z,29.20
2022-09-18T16:47:32.083Z,29.50
2022-09-18T16:50:07.653Z,29.60
2022-09-18T16:52:42.588Z,29.30
2022-09-18T16:55:17.695Z,29.30
2022-09-18T16:57:53.623Z,29.40
2022-09-18T17:00:29.041Z,29.40
2022-09-18T17:03:07.998Z,29.50
2022-09-18T17:05:43.496Z,29.40
2022-09-18T17:08:18.485Z,29.50
2022-09-18T17:10:53.365Z,29.50
2022-09-18T17:13:28.337Z,29.50
2022-09-18T17:16:03.254Z,29.60
2022-09-18T17:18:38.163Z,29.70
2022-09-18T17:21:13.861Z,29.70
2022-09-18T17:23:48.774Z,29.90
2022-09-18T17:26:26.672Z,29.90
2022-09-18T17:29:01.585Z,29.90
2022-09-18T17:31:36.512Z,29.90
2022-09-18T17:34:12.334Z,29.80
2022-09-18T17:36:47.219Z,30.00
2022-09-18T17:39:22.306Z,30.00
2022-09-18T17:41:58.931Z,30.20
2022-09-18T17:44:35.328Z,30.00
2022-09-18T17:47:10.204Z,29.90
2022-09-18T17:49:45.212Z,29.80
2022-09-18T17:52:20.576Z,29.90
2022-09-18T17:54:55.547Z,29.80
2022-09-18T17:57:31.921Z,29.90
2022-09-18T18:00:09.162Z,29.80
2022-09-18T18:02:46.947Z,29.80
2022-09-18T18:05:22.018Z,30.00
2022-09-18T18:07:56.912Z,29.90
2022-09-18T18:10:31.795Z,30.10
2022-09-18T18:13:06.727Z,30.00
2022-09-18T18:15:41.652Z,29.90
2022-09-18T18:18:19.033Z,30.00
2022-09-18T18:20:53.934Z,29.90
2022-09-18T18:23:29.048Z,29.90
2022-09-18T18:26:06.982Z,29.80
2022-09-18T18:28:42.693Z,29.90
2022-09-18T18:31:17.804Z,30.00
2022-09-18T18:33:55.267Z,30.10
2022-09-18T18:36:33.019Z,30.00
2022-09-18T18:39:11.998Z,30.20
2022-09-18T18:41:47.284Z,30.00
2022-09-18T18:44:23.172Z,30.00
2022-09-18T18:46:59.103Z,30.10
2022-09-18T18:49:34.116Z,30.20
2022-09-18T18:52:09.417Z,30.60
2022-09-18T18:54:44.746Z,30.60
2022-09-18T18:57:21.516Z,30.70
2022-09-18T18:59:57.223Z,30.70
2022-09-18T19:02:32.427Z,30.90
2022-09-18T19:05:09.237Z,30.70
2022-09-18T19:07:44.224Z,30.60
2022-09-18T19:10:19.216Z,30.70
2022-09-18T19:12:57.300Z,30.70
2022-09-18T19:15:34.647Z,30.70
2022-09-18T19:18:12.695Z,30.80
2022-09-18T19:20:52.236Z,30.80
2022-09-18T19:23:27.606Z,30.90
2022-09-18T19:26:03.259Z,30.90
2022-09-18T19:28:38.454Z,31.00
2022-09-18T19:31:13.421Z,30.90
2022-09-18T19:33:52.172Z,30.90
2022-09-18T19:36:29.245Z,31.10
2022-09-18T19:39:06.782Z,31.10
2022-09-18T19:41:49.776Z,31.10
2022-09-18T19:45:01.595Z,31.10
2022-09-18T19:47:50.577Z,31.00
2022-09-18T19:50:37.558Z,31.10
2022-09-18T19:53:13.481Z,31.40
2022-09-18T19:55:48.922Z,31.40
2022-09-18T19:58:23.768Z,31.40
2022-09-18T20:01:01.287Z,31.80
2022-09-18T20:03:37.809Z,33.20
2022-09-18T20:06:12.785Z,34.60
2022-09-18T20:08:47.732Z,36.70
2022-09-18T20:11:22.572Z,39.50
2022-09-18T20:13:57.519Z,43.40
2022-09-18T20:16:32.847Z,48.20
2022-09-18T20:19:07.747Z,58.30
2022-09-18T20:21:42.816Z,64.40
2022-09-18T20:24:18.330Z,62.00
2022-09-18T20:26:53.226Z,71.50
2022-09-18T20:29:28.952Z,77.70
2022-09-18T20:32:03.932Z,80.10
2022-09-18T20:34:39.106Z,81.80
2022-09-18T20:37:13.952Z,84.20
2022-09-18T20:39:48.887Z,85.40
2022-09-18T20:42:24.434Z,85.60
2022-09-18T20:45:03.593Z,87.80
2022-09-18T20:47:38.486Z,87.80
2022-09-18T20:50:14.583Z,88.40
2022-09-18T20:52:49.484Z,89.30
2022-09-18T20:55:24.811Z,88.50
2022-09-18T20:58:02.294Z,88.60
2022-09-18T21:00:37.698Z,89.80
2022-09-18T21:03:13.423Z,90.30
2022-09-18T21:05:53.024Z,90.50
2022-09-18T21:08:42.860Z,90.60
2022-09-18T21:11:25.022Z,90.90
2022-09-18T21:14:03.412Z,91.10
2022-09-18T21:16:43.460Z,91.40
2022-09-18T21:19:19.940Z,91.30
2022-09-18T21:21:54.955Z,91.30
2022-09-18T21:24:32.183Z,91.30
2022-09-18T21:27:08.841Z,91.30
2022-09-18T21:29:43.689Z,90.90
2022-09-18T21:32:19.074Z,90.40
2022-09-18T21:34:54.537Z,90.40
2022-09-18T21:37:29.505Z,89.90
2022-09-18T21:40:04.765Z,90.00
2022-09-18T21:42:42.641Z,90.10
2022-09-18T21:45:19.508Z,89.00
2022-09-18T21:47:54.348Z,90.00
2022-09-18T21:50:29.189Z,89.90
2022-09-18T21:53:04.729Z,88.90
2022-09-18T21:55:40.231Z,89.60
2022-09-18T21:58:15.128Z,89.30
2022-09-18T22:00:49.983Z,89.70
2022-09-18T22:03:25.177Z,90.00
2022-09-18T22:06:00.568Z,90.00
2022-09-18T22:08:35.513Z,89.70
2022-09-18T22:11:10.464Z,88.60
2022-09-18T22:13:48.629Z,88.90
2022-09-18T22:16:26.021Z,88.30
2022-09-18T22:19:01.188Z,89.40
2022-09-18T22:21:40.355Z,89.30
2022-09-18T22:24:19.870Z,87.80
2022-09-18T22:27:05.759Z,87.70
2022-09-18T22:29:41.782Z,87.80
2022-09-18T22:32:16.738Z,87.90
2022-09-18T22:34:53.067Z,87.00
2022-09-18T22:37:28.871Z,87.70
2022-09-18T22:40:04.340Z,87.60
2022-09-18T22:42:39.315Z,87.10
2022-09-18T22:45:14.334Z,87.90
2022-09-18T22:47:49.164Z,87.80
2022-09-18T22:50:24.101Z,86.40
2022-09-18T22:52:59.028Z,86.40
2022-09-18T22:55:35.523Z,84.90
2022-09-18T22:58:11.040Z,86.50
2022-09-18T23:00:45.972Z,85.80
2022-09-18T23:03:20.892Z,87.30
2022-09-18T23:05:55.863Z,88.10
2022-09-18T23:08:33.835Z,88.40
2022-09-18T23:11:20.832Z,88.10
2022-09-18T23:14:05.975Z,87.70
2022-09-18T23:16:41.016Z,88.10
2022-09-18T23:19:28.615Z,87.90
2022-09-18T23:22:04.527Z,87.80
2022-09-18T23:24:39.422Z,88.70
2022-09-18T23:27:14.328Z,89.00
2022-09-18T23:29:49.290Z,89.60
2022-09-18T23:32:24.166Z,89.80
2022-09-18T23:34:59.015Z,89.90
2022-09-18T23:37:33.910Z,89.80
2022-09-18T23:40:09.533Z,89.90
2022-09-18T23:42:47.445Z,90.00
2022-09-18T23:45:22.309Z,90.70
2022-09-18T23:47:57.137Z,90.70
2022-09-18T23:50:32.002Z,90.60
2022-09-18T23:53:06.912Z,90.80
2022-09-18T23:55:41.759Z,90.90
2022-09-18T23:58:17.416Z,91.00
